Time;durP1;ratioP1;P1;durP2;ratioP2;P2;SDS_P1;SDS_P2;PMS_P1;PMS_P2;Temp;Humidity;BMP_temperature;BMP_pressure;BME280_temperature;BME280_humidity;BME280_pressure;Samples;Min_cycle;Max_cycle;Signal;HPM_P1;HPM_P2
2023/09/12 00:01:06;;;;;;;26.98;20.88;;;19.90;99.90;;;;;;5088936;28;20509;-62
2023/09/12 00:03:33;;;;;;;21.65;19.35;;;19.90;99.90;;;;;;5084531;28;20129;-61
2023/09/12 00:06:23;;;;;;;25.30;20.95;;;19.90;99.90;;;;;;5085630;28;20528;-60
2023/09/12 00:08:48;;;;;;;28.48;21.13;;;19.90;99.90;;;;;;5079183;28;20051;-60
2023/09/12 00:11:14;;;;;;;22.83;19.95;;;19.90;99.90;;;;;;5067481;28;20075;-61
2023/09/12 00:13:41;;;;;;;25.25;21.35;;;19.80;99.90;;;;;;5065387;28;20061;-60
2023/09/12 00:16:09;;;;;;;31.05;22.35;;;19.90;99.90;;;;;;5088778;28;20544;-60
2023/09/12 00:18:35;;;;;;;25.90;18.35;;;19.80;99.90;;;;;;5083631;28;20056;-59
2023/09/12 00:21:00;;;;;;;25.52;21.40;;;19.90;99.90;;;;;;5089508;28;20060;-61
2023/09/12 00:23:47;;;;;;;23.55;20.65;;;19.90;99.90;;;;;;5079746;28;20044;-58
2023/09/12 00:26:12;;;;;;;26.08;21.95;;;19.80;99.90;;;;;;5067182;28;20063;-59
2023/09/12 00:28:38;;;;;;;25.20;20.92;;;19.80;99.90;;;;;;5079812;28;20051;-61
2023/09/12 00:31:04;;;;;;;26.52;19.25;;;19.90;99.90;;;;;;5085875;28;20056;-59
2023/09/12 00:33:30;;;;;;;30.20;22.30;;;19.90;99.90;;;;;;5082926;28;20148;-61
2023/09/12 00:35:55;;;;;;;28.15;23.35;;;19.80;99.90;;;;;;5067322;28;20168;-61
2023/09/12 00:38:24;;;;;;;29.13;21.25;;;19.80;99.90;;;;;;5066247;28;20103;-59
2023/09/12 00:40:50;;;;;;;25.90;21.70;;;19.80;99.90;;;;;;5078072;28;20065;-58
2023/09/12 00:43:16;;;;;;;25.35;21.95;;;19.80;99.90;;;;;;5080605;28;20059;-59
2023/09/12 00:45:42;;;;;;;27.88;23.25;;;19.80;99.90;;;;;;5082771;28;20156;-58
2023/09/12 00:48:09;;;;;;;26.40;21.60;;;19.70;99.90;;;;;;5085368;28;20063;-58
2023/09/12 00:50:55;;;;;;;30.95;23.08;;;19.70;99.90;;;;;;5079022;28;20079;-57
2023/09/12 00:53:24;;;;;;;28.48;22.70;;;19.60;99.90;;;;;;5018190;28;1106467;-58
2023/09/12 00:55:56;;;;;;;28.80;23.10;;;19.60;99.90;;;;;;5053909;28;20056;-58
2023/09/12 00:58:25;;;;;;;29.27;22.98;;;19.60;99.90;;;;;;5081645;28;20059;-58
2023/09/12 01:00:51;;;;;;;26.25;21.75;;;19.60;99.90;;;;;;5072461;28;21179;-58
2023/09/12 01:03:17;;;;;;;28.98;22.77;;;19.60;99.90;;;;;;5085380;28;20401;-58
2023/09/12 01:05:44;;;;;;;30.27;22.05;;;19.60;99.90;;;;;;5082335;28;20846;-58
2023/09/12 01:08:10;;;;;;;30.05;24.10;;;19.60;99.90;;;;;;5084554;28;20056;-58
2023/09/12 01:10:36;;;;;;;28.50;22.33;;;19.60;99.90;;;;;;5081205;28;20055;-58
2023/09/12 01:13:02;;;;;;;28.63;24.20;;;19.50;99.90;;;;;;5084722;28;20083;-58
2023/09/12 01:15:28;;;;;;;31.20;22.83;;;19.50;99.90;;;;;;5082521;28;20056;-58
2023/09/12 01:17:54;;;;;;;29.00;22.42;;;19.50;99.90;;;;;;5084167;28;20391;-58
2023/09/12 01:20:50;;;;;;;26.88;23.83;;;19.50;99.90;;;;;;5084397;28;20059;-58
2023/09/12 01:26:19;;;;;;;25.77;21.80;;;19.40;99.90;;;;;;5082335;28;20825;-58
2023/09/12 01:28:51;;;;;;;25.70;21.60;;;19.40;99.90;;;;;;5080205;28;20090;-58
2023/09/12 01:33:45;;;;;;;31.63;24.02;;;19.20;99.90;;;;;;5081993;28;20067;-58
2023/09/12 01:36:10;;;;;;;29.90;24.15;;;19.10;99.90;;;;;;5084463;28;20068;-58
2023/09/12 01:38:36;;;;;;;31.95;25.92;;;19.10;99.90;;;;;;5076646;28;20521;-58
2023/09/12 01:41:02;;;;;;;32.22;25.35;;;19.20;99.90;;;;;;5065687;28;20051;-58
2023/09/12 01:43:49;;;;;;;30.92;23.83;;;19.10;99.90;;;;;;5061446;28;20056;-57
2023/09/12 01:46:16;;;;;;;29.48;23.63;;;19.10;99.90;;;;;;5069535;28;20052;-57
2023/09/12 01:48:44;;;;;;;28.65;23.75;;;19.10;99.90;;;;;;5062943;28;20067;-58
2023/09/12 01:51:10;;;;;;;32.03;25.48;;;19.10;99.90;;;;;;5080313;28;20048;-58
2023/09/12 01:53:36;;;;;;;28.08;23.65;;;19.10;99.90;;;;;;5081501;28;20136;-58
2023/09/12 01:56:02;;;;;;;32.30;24.60;;;19.10;99.90;;;;;;5083776;28;20147;-57
2023/09/12 01:58:47;;;;;;;30.98;23.83;;;19.00;99.90;;;;;;5066739;28;20056;-58
2023/09/12 02:01:14;;;;;;;37.47;26.85;;;19.00;99.90;;;;;;5043237;28;20064;-58
2023/09/12 02:03:40;;;;;;;28.63;23.50;;;18.90;99.90;;;;;;5042526;28;20064;-58
2023/09/12 02:06:05;;;;;;;26.38;22.67;;;18.90;99.90;;;;;;5073078;28;20464;-58
2023/09/12 02:08:31;;;;;;;29.40;24.52;;;18.90;99.90;;;;;;5077593;28;20169;-58
2023/09/12 02:10:57;;;;;;;29.20;24.25;;;19.00;99.90;;;;;;5083728;28;20047;-58
2023/09/12 02:13:22;;;;;;;30.17;24.50;;;19.00;99.90;;;;;;5081034;28;20137;-58
2023/09/12 02:15:48;;;;;;;31.92;23.42;;;19.10;99.90;;;;;;5080187;28;20548;-57
2023/09/12 02:18:14;;;;;;;28.23;24.17;;;19.00;99.90;;;;;;5062978;28;20410;-58
2023/09/12 02:20:41;;;;;;;28.63;23.88;;;19.00;99.90;;;;;;5061917;28;20065;-58
2023/09/12 02:23:09;;;;;;;34.10;25.02;;;18.90;99.90;;;;;;5064261;28;20065;-57
2023/09/12 02:25:35;;;;;;;28.58;23.70;;;18.90;99.90;;;;;;5078753;28;20087;-57
2023/09/12 02:28:01;;;;;;;29.48;24.20;;;18.90;99.90;;;;;;5062453;28;20510;-58
2023/09/12 02:30:26;;;;;;;33.35;25.50;;;18.90;99.90;;;;;;5076819;28;20060;-58
2023/09/12 02:32:52;;;;;;;29.90;26.02;;;18.90;99.90;;;;;;5082369;28;20151;-58
2023/09/12 02:35:18;;;;;;;34.35;24.77;;;18.80;99.90;;;;;;5064942;28;20052;-58
2023/09/12 02:37:43;;;;;;;35.42;26.17;;;18.80;99.90;;;;;;5079616;28;20571;-61
2023/09/12 02:40:11;;;;;;;38.55;27.92;;;18.70;99.90;;;;;;5038343;28;20530;-58
2023/09/12 02:42:48;;;;;;;35.03;26.48;;;18.70;99.90;;;;;;5037993;28;20048;-57
2023/09/12 02:45:14;;;;;;;32.45;26.17;;;18.70;99.90;;;;;;5067986;28;20082;-57
2023/09/12 02:47:40;;;;;;;32.20;25.48;;;18.70;99.90;;;;;;5069300;28;20067;-58
2023/09/12 02:50:06;;;;;;;32.65;24.85;;;18.70;99.90;;;;;;5073771;28;20213;-58
2023/09/12 02:52:31;;;;;;;31.20;26.38;;;18.70;99.90;;;;;;5080804;28;20116;-58
2023/09/12 02:54:57;;;;;;;29.90;24.73;;;18.70;99.90;;;;;;5064559;28;21537;-58
2023/09/12 02:57:23;;;;;;;31.83;24.50;;;18.70;99.90;;;;;;5082965;28;20056;-58
2023/09/12 02:59:49;;;;;;;28.58;23.65;;;18.70;99.90;;;;;;5072060;28;20052;-57
2023/09/12 03:02:15;;;;;;;31.88;24.13;;;18.70;99.90;;;;;;5082841;28;20414;-58
2023/09/12 03:04:40;;;;;;;30.83;25.55;;;18.80;99.90;;;;;;5080328;28;20862;-58
2023/09/12 03:07:06;;;;;;;33.88;25.63;;;18.70;99.90;;;;;;5082770;28;20085;-58
2023/09/12 03:09:32;;;;;;;31.02;24.25;;;18.70;99.90;;;;;;5080226;28;20047;-57
2023/09/12 03:11:57;;;;;;;31.83;25.35;;;18.80;99.90;;;;;;5081908;28;20770;-57
2023/09/12 03:14:23;;;;;;;33.05;26.23;;;18.80;99.90;;;;;;5082154;28;20078;-55
2023/09/12 03:16:49;;;;;;;31.02;26.40;;;18.80;99.90;;;;;;5060110;28;20394;-58
2023/09/12 03:19:14;;;;;;;32.17;27.02;;;18.80;99.90;;;;;;5082593;28;20109;-58
2023/09/12 03:21:40;;;;;;;30.15;24.27;;;18.70;99.90;;;;;;5077736;28;20068;-58
2023/09/12 03:24:06;;;;;;;31.20;25.35;;;18.70;99.90;;;;;;5082530;28;20113;-58
2023/09/12 03:26:51;;;;;;;33.95;24.45;;;18.70;99.90;;;;;;5078007;28;20051;-59
2023/09/12 03:29:17;;;;;;;31.60;22.45;;;18.70;99.90;;;;;;5024489;28;20139;-58
2023/09/12 03:31:43;;;;;;;30.45;24.50;;;18.70;99.90;;;;;;5059934;28;20836;-58
2023/09/12 03:34:09;;;;;;;35.05;25.90;;;18.70;99.90;;;;;;5063376;28;20056;-57
2023/09/12 03:36:34;;;;;;;29.92;24.73;;;18.70;99.90;;;;;;5070006;28;20049;-58
2023/09/12 03:39:00;;;;;;;34.92;25.85;;;18.70;99.90;;;;;;5048425;28;20068;-59
2023/09/12 03:41:26;;;;;;;33.90;26.30;;;18.70;99.90;;;;;;5026861;28;20052;-56
2023/09/12 03:43:55;;;;;;;34.40;27.27;;;18.70;99.90;;;;;;5072966;28;20059;-59
2023/09/12 03:46:24;;;;;;;31.20;23.98;;;18.60;99.90;;;;;;5082710;28;20448;-59
2023/09/12 03:48:50;;;;;;;32.88;27.17;;;18.60;99.90;;;;;;5080499;28;20505;-58
2023/09/12 03:51:16;;;;;;;34.17;24.48;;;18.60;99.90;;;;;;5064390;28;20063;-57
2023/09/12 03:53:41;;;;;;;34.55;27.52;;;18.60;99.90;;;;;;5078708;28;20141;-61
2023/09/12 03:56:10;;;;;;;32.42;25.88;;;18.60;99.90;;;;;;5082435;28;20062;-59
2023/09/12 03:58:35;;;;;;;28.05;23.48;;;18.60;99.90;;;;;;5079354;28;20071;-60
2023/09/12 04:01:01;;;;;;;30.88;23.92;;;18.50;99.90;;;;;;5081857;28;20669;-58
2023/09/12 04:03:26;;;;;;;30.48;25.42;;;18.50;99.90;;;;;;5082743;28;20414;-61
2023/09/12 04:05:53;;;;;;;34.50;27.40;;;18.50;99.90;;;;;;5085010;28;20108;-58
2023/09/12 04:08:19;;;;;;;29.25;23.75;;;18.50;99.90;;;;;;5086028;28;20055;-58
2023/09/12 04:10:44;;;;;;;32.67;23.67;;;18.50;99.90;;;;;;5083466;28;20055;-58
2023/09/12 04:13:10;;;;;;;29.45;23.83;;;18.40;99.90;;;;;;5086095;28;20545;-59
2023/09/12 04:15:36;;;;;;;30.52;23.23;;;18.40;99.90;;;;;;5064004;28;20059;-61
2023/09/12 04:18:02;;;;;;;29.98;25.33;;;18.40;99.90;;;;;;5085350;28;20078;-61
2023/09/12 04:20:27;;;;;;;29.73;24.88;;;18.40;99.90;;;;;;5082859;28;20417;-58
2023/09/12 04:22:53;;;;;;;39.22;24.55;;;18.30;99.90;;;;;;5085206;28;20052;-59
2023/09/12 04:25:19;;;;;;;30.98;24.42;;;18.30;99.90;;;;;;5083304;28;20058;-60
2023/09/12 04:27:49;;;;;;;31.00;23.42;;;18.20;99.90;;;;;;5066801;28;20080;-58
2023/09/12 04:30:14;;;;;;;29.92;23.88;;;18.20;99.90;;;;;;5085519;28;20114;-58
2023/09/12 04:32:40;;;;;;;28.05;22.80;;;18.10;99.90;;;;;;5064911;28;20527;-58
2023/09/12 04:35:13;;;;;;;23.90;20.73;;;18.10;99.90;;;;;;5084978;28;20530;-58
2023/09/12 04:37:38;;;;;;;23.50;20.98;;;18.10;99.90;;;;;;5063513;28;20048;-57
2023/09/12 04:40:08;;;;;;;27.05;23.48;;;18.10;99.90;;;;;;5085412;28;20066;-58
2023/09/12 04:42:54;;;;;;;33.00;24.15;;;18.10;99.90;;;;;;5082828;28;20056;-58
2023/09/12 04:45:23;;;;;;;28.63;23.00;;;18.10;99.90;;;;;;5055793;28;20143;-58
2023/09/12 04:47:49;;;;;;;27.17;23.35;;;18.10;99.90;;;;;;5078644;28;20071;-58
2023/09/12 04:50:17;;;;;;;30.13;21.27;;;18.00;99.90;;;;;;5066715;28;20051;-57
2023/09/12 04:52:43;;;;;;;24.67;20.67;;;18.00;99.90;;;;;;5082362;28;20059;-58
2023/09/12 04:55:08;;;;;;;23.38;20.52;;;17.90;99.90;;;;;;5085114;28;20500;-58
2023/09/12 04:57:34;;;;;;;23.75;21.35;;;17.90;99.90;;;;;;5079336;28;20143;-58
2023/09/12 05:00:00;;;;;;;27.17;19.92;;;17.90;99.90;;;;;;5084678;28;20051;-59
2023/09/12 05:02:29;;;;;;;22.48;19.83;;;17.90;99.90;;;;;;5084467;28;20507;-58
2023/09/12 05:04:54;;;;;;;23.05;20.42;;;17.80;99.90;;;;;;5083522;28;20059;-58
2023/09/12 05:07:45;;;;;;;21.75;19.63;;;17.90;99.90;;;;;;5066545;28;20055;-58
2023/09/12 05:10:12;;;;;;;20.88;18.70;;;17.80;99.90;;;;;;5082780;28;20056;-58
2023/09/12 05:12:37;;;;;;;52.88;20.73;;;17.80;99.90;;;;;;5082229;28;20056;-58
2023/09/12 05:15:04;;;;;;;142.95;23.55;;;17.70;99.90;;;;;;5044109;28;1100771;-58
2023/09/12 05:17:29;;;;;;;21.23;18.85;;;17.70;99.90;;;;;;5082151;28;20085;-57
2023/09/12 05:19:55;;;;;;;25.95;19.13;;;17.70;99.90;;;;;;5083130;28;20071;-57
2023/09/12 05:22:24;;;;;;;31.58;17.52;;;17.70;99.90;;;;;;5084398;28;20064;-58
2023/09/12 05:24:50;;;;;;;20.17;18.17;;;17.60;99.90;;;;;;5082141;28;20872;-57
2023/09/12 05:27:15;;;;;;;18.15;16.13;;;17.60;99.90;;;;;;5084618;28;20147;-58
2023/09/12 05:29:41;;;;;;;62.80;19.10;;;17.60;99.90;;;;;;5081525;28;20068;-57
2023/09/12 05:32:07;;;;;;;21.38;16.85;;;17.60;99.90;;;;;;5085180;28;20055;-58
2023/09/12 05:34:32;;;;;;;39.20;17.80;;;17.60;99.90;;;;;;5079830;28;20167;-57
2023/09/12 05:36:58;;;;;;;17.75;15.90;;;17.60;99.90;;;;;;5083770;28;20441;-57
2023/09/12 05:39:24;;;;;;;34.00;17.23;;;17.60;99.90;;;;;;5079465;28;20060;-56
2023/09/12 05:41:49;;;;;;;25.10;17.77;;;17.60;99.90;;;;;;5082627;28;20048;-57
2023/09/12 05:44:18;;;;;;;17.98;16.30;;;17.60;99.90;;;;;;5084074;28;20064;-57
2023/09/12 05:46:47;;;;;;;18.00;16.20;;;17.60;99.90;;;;;;5081081;28;20102;-57
2023/09/12 05:49:14;;;;;;;19.70;16.95;;;17.60;99.90;;;;;;5080496;28;20174;-57
2023/09/12 05:51:40;;;;;;;29.58;18.67;;;17.60;99.90;;;;;;5068185;28;20150;-57
2023/09/12 05:54:07;;;;;;;22.77;20.35;;;17.70;99.90;;;;;;5084624;28;20052;-57
2023/09/12 05:56:53;;;;;;;24.23;18.80;;;17.70;99.90;;;;;;5081416;28;20056;-56
2023/09/12 06:01:49;;;;;;;68.93;22.65;;;17.70;99.90;;;;;;5081169;28;20094;-58
2023/09/12 06:04:14;;;;;;;27.33;21.50;;;17.80;99.90;;;;;;5080958;28;20056;-58
2023/09/12 06:06:40;;;;;;;37.10;22.60;;;17.90;99.90;;;;;;5080153;28;20108;-58
2023/09/12 06:09:06;;;;;;;29.08;22.00;;;18.00;99.90;;;;;;5045373;28;20056;-57
2023/09/12 06:11:32;;;;;;;118.68;26.33;;;18.00;99.90;;;;;;5059471;28;20063;-57
2023/09/12 06:13:57;;;;;;;28.67;22.20;;;18.10;99.90;;;;;;5069926;28;20573;-57
2023/09/12 06:16:24;;;;;;;27.52;22.80;;;18.10;99.90;;;;;;5082064;28;20072;-55
2023/09/12 06:19:09;;;;;;;52.08;22.08;;;18.20;99.90;;;;;;5060952;28;20052;-57
2023/09/12 06:21:34;;;;;;;36.90;23.30;;;18.20;99.90;;;;;;5055696;28;20056;-57
2023/09/12 06:24:13;;;;;;;34.28;23.00;;;18.40;99.90;;;;;;5082907;28;20067;-57
2023/09/12 06:26:39;;;;;;;27.73;23.25;;;18.50;99.90;;;;;;5057987;28;20080;-57
2023/09/12 06:29:06;;;;;;;99.65;24.77;;;18.60;99.90;;;;;;5083257;28;20515;-57
2023/09/12 06:31:32;;;;;;;36.50;25.13;;;18.70;99.90;;;;;;5070875;28;20441;-57
2023/09/12 06:33:58;;;;;;;73.18;24.08;;;18.60;99.90;;;;;;5054643;28;20105;-56
2023/09/12 06:36:29;;;;;;;56.10;22.40;;;18.60;99.90;;;;;;5065388;28;20580;-56
2023/09/12 06:39:12;;;;;;;91.10;25.30;;;18.70;99.90;;;;;;5031660;28;20132;-59
2023/09/12 06:41:38;;;;;;;101.72;25.00;;;18.60;99.90;;;;;;5071299;28;20049;-58
2023/09/12 06:44:05;;;;;;;77.45;26.10;;;18.70;99.90;;;;;;5060720;28;20501;-57
2023/09/12 06:46:50;;;;;;;44.67;24.27;;;18.80;99.90;;;;;;5059794;28;20068;-58
2023/09/12 06:49:16;;;;;;;35.58;26.63;;;18.80;99.90;;;;;;5068302;28;20055;-58
2023/09/12 06:51:42;;;;;;;33.28;26.08;;;18.80;99.90;;;;;;5080201;28;20063;-58
2023/09/12 06:54:07;;;;;;;56.75;30.60;;;18.90;99.90;;;;;;5064610;28;20048;-57
2023/09/12 06:56:37;;;;;;;42.97;29.88;;;19.00;99.90;;;;;;5070615;28;20571;-58
2023/09/12 06:59:23;;;;;;;56.53;26.33;;;19.10;99.90;;;;;;5064399;28;20087;-58
2023/09/12 07:01:49;;;;;;;45.97;26.83;;;19.30;99.90;;;;;;5080251;28;20145;-58
2023/09/12 07:04:14;;;;;;;36.63;24.65;;;19.40;99.90;;;;;;5060935;28;20576;-58
2023/09/12 07:06:40;;;;;;;38.00;26.92;;;19.40;99.90;;;;;;5050718;28;20163;-61
2023/09/12 07:09:08;;;;;;;43.65;26.45;;;19.50;99.90;;;;;;5071745;28;20063;-59
2023/09/12 07:11:34;;;;;;;49.53;26.25;;;19.50;99.90;;;;;;5080642;28;20068;-61
2023/09/12 07:14:00;;;;;;;37.70;26.30;;;19.60;99.90;;;;;;5064466;28;20063;-61
2023/09/12 07:16:25;;;;;;;46.97;25.20;;;19.70;99.90;;;;;;5080416;28;20052;-61
2023/09/12 07:18:52;;;;;;;40.63;26.08;;;19.80;99.90;;;;;;5081206;28;20060;-59
2023/09/12 07:21:18;;;;;;;39.67;23.55;;;19.70;99.90;;;;;;5064355;28;20067;-61
2023/09/12 07:23:44;;;;;;;42.38;24.77;;;19.70;99.90;;;;;;5057467;28;20071;-61
2023/09/12 07:26:14;;;;;;;33.75;24.85;;;19.70;99.90;;;;;;5073945;28;20052;-62
2023/09/12 07:28:40;;;;;;;38.88;25.15;;;19.80;99.90;;;;;;5067322;28;20052;-61
2023/09/12 07:31:05;;;;;;;33.47;24.80;;;19.90;99.90;;;;;;5064736;28;20056;-58
2023/09/12 07:33:32;;;;;;;31.33;24.15;;;20.00;99.90;;;;;;5068129;28;20048;-58
2023/09/12 07:36:07;;;;;;;32.65;22.95;;;20.10;99.90;;;;;;5048871;28;20052;-58
2023/09/12 07:38:35;;;;;;;32.83;22.58;;;20.20;99.90;;;;;;5075310;28;20574;-58
2023/09/12 07:41:19;;;;;;;35.08;23.70;;;20.20;99.90;;;;;;5059364;28;20144;-58
2023/09/12 07:43:45;;;;;;;33.05;24.20;;;20.30;99.90;;;;;;5066728;28;20592;-58
2023/09/12 07:46:10;;;;;;;30.15;23.15;;;20.20;99.90;;;;;;5073348;28;20064;-57
2023/09/12 07:48:36;;;;;;;31.80;22.30;;;20.00;99.90;;;;;;5054428;28;20061;-57
2023/09/12 07:51:24;;;;;;;28.10;20.00;;;19.90;99.90;;;;;;5060616;28;20061;-57
2023/09/12 07:53:50;;;;;;;32.08;23.00;;;19.80;99.90;;;;;;5075371;28;21744;-57
2023/09/12 07:56:15;;;;;;;33.60;23.90;;;19.80;99.90;;;;;;5073436;28;20166;-57
2023/09/12 07:58:41;;;;;;;30.65;23.33;;;19.70;99.90;;;;;;5068210;28;20052;-57
2023/09/12 08:01:11;;;;;;;27.27;22.10;;;19.90;99.90;;;;;;5077586;28;20067;-57
2023/09/12 08:03:39;;;;;;;32.63;25.05;;;19.90;99.90;;;;;;5078984;28;20048;-57
2023/09/12 08:06:05;;;;;;;30.25;24.65;;;20.00;99.90;;;;;;5075272;28;20190;-57
2023/09/12 08:08:31;;;;;;;35.60;26.35;;;20.10;99.90;;;;;;5061380;28;20068;-59
2023/09/12 08:10:57;;;;;;;32.20;23.90;;;20.30;99.90;;;;;;5078766;28;20435;-57
2023/09/12 08:13:49;;;;;;;33.10;25.92;;;20.60;99.90;;;;;;5077209;28;20080;-57
2023/09/12 08:16:15;;;;;;;29.45;23.77;;;20.50;99.90;;;;;;5070834;28;20040;-57
2023/09/12 08:18:41;;;;;;;31.98;24.17;;;20.60;99.90;;;;;;5067399;28;20147;-57
2023/09/12 08:21:07;;;;;;;27.27;22.40;;;20.70;99.90;;;;;;5061352;28;20057;-62
2023/09/12 08:23:34;;;;;;;29.02;22.88;;;20.80;99.90;;;;;;5058725;28;20059;-57
2023/09/12 08:26:00;;;;;;;27.63;22.77;;;20.80;99.90;;;;;;5079372;28;20438;-62
2023/09/12 08:28:25;;;;;;;29.45;24.48;;;20.90;99.90;;;;;;5046692;28;20490;-62
2023/09/12 08:30:51;;;;;;;32.38;25.20;;;20.80;99.90;;;;;;5040858;28;20409;-58
2023/09/12 08:33:17;;;;;;;36.75;24.90;;;20.50;99.90;;;;;;5065069;28;20109;-60
2023/09/12 08:35:43;;;;;;;31.88;25.83;;;20.50;99.90;;;;;;5076587;28;20930;-59
2023/09/12 08:38:09;;;;;;;29.92;24.25;;;20.50;99.90;;;;;;5061883;28;20052;-57
2023/09/12 08:40:54;;;;;;;30.90;23.75;;;20.60;99.90;;;;;;5078588;28;20518;-57
2023/09/12 08:43:26;;;;;;;34.17;25.17;;;20.50;99.90;;;;;;5052482;28;20057;-57
2023/09/12 08:45:52;;;;;;;36.63;26.98;;;20.60;99.90;;;;;;5067530;28;20056;-57
2023/09/12 08:51:08;;;;;;;31.85;23.83;;;20.50;99.90;;;;;;5063765;28;20225;-57
2023/09/12 08:53:35;;;;;;;32.05;24.90;;;20.40;99.90;;;;;;5064710;28;20113;-57
2023/09/12 08:56:27;;;;;;;33.70;24.73;;;20.50;99.90;;;;;;5071079;28;20502;-57
2023/09/12 08:59:17;;;;;;;31.65;23.30;;;20.60;99.90;;;;;;5076967;28;20057;-57
2023/09/12 09:01:44;;;;;;;31.60;24.85;;;20.50;99.90;;;;;;5073008;28;20900;-57
2023/09/12 09:04:26;;;;;;;30.02;22.98;;;20.60;99.90;;;;;;5074672;28;20056;-57
2023/09/12 09:07:10;;;;;;;34.83;25.48;;;20.70;99.90;;;;;;5064685;28;20147;-57
2023/09/12 09:09:36;;;;;;;30.35;25.13;;;20.80;99.90;;;;;;5069464;28;20063;-56
2023/09/12 09:14:45;;;;;;;30.03;23.03;;;20.80;99.90;;;;;;5069616;28;20129;-57
2023/09/12 09:17:12;;;;;;;29.98;23.80;;;20.90;99.90;;;;;;5076534;28;20060;-57
2023/09/12 09:19:49;;;;;;;31.35;24.88;;;21.10;99.90;;;;;;5077926;28;20052;-57
2023/09/12 09:22:15;;;;;;;32.85;24.33;;;21.20;99.90;;;;;;5061629;28;20062;-57
2023/09/12 09:24:40;;;;;;;37.50;25.98;;;21.40;99.90;;;;;;5076496;28;20518;-57
2023/09/12 09:27:06;;;;;;;34.33;25.90;;;21.60;99.90;;;;;;5077219;28;20059;-57
2023/09/12 09:29:52;;;;;;;34.17;24.60;;;22.10;99.90;;;;;;5060100;28;20059;-57
2023/09/12 09:32:21;;;;;;;32.50;24.98;;;21.90;99.90;;;;;;4994624;28;1122400;-57
2023/09/12 09:34:58;;;;;;;37.88;27.10;;;22.20;99.90;;;;;;5073817;28;20073;-59
2023/09/12 09:37:24;;;;;;;36.72;25.50;;;22.30;99.90;;;;;;5075341;28;20834;-55
2023/09/12 09:40:10;;;;;;;33.88;25.45;;;22.50;99.90;;;;;;5059402;28;20052;-58
2023/09/12 09:42:35;;;;;;;41.17;27.48;;;22.80;99.90;;;;;;5073831;28;20072;-59
2023/09/12 09:45:02;;;;;;;36.00;27.00;;;23.00;99.90;;;;;;5071738;28;20074;-57
2023/09/12 09:47:52;;;;;;;35.03;25.92;;;23.20;99.90;;;;;;5052886;28;20056;-59
2023/09/12 09:50:17;;;;;;;33.80;23.50;;;23.50;99.90;;;;;;5058169;28;20498;-58
2023/09/12 09:52:44;;;;;;;35.83;26.20;;;23.90;99.90;;;;;;5077217;28;20059;-58
2023/09/12 09:55:15;;;;;;;31.98;23.75;;;24.00;99.90;;;;;;5076414;28;20059;-58
2023/09/12 09:57:41;;;;;;;30.95;23.92;;;24.60;99.90;;;;;;5068754;28;20147;-58
2023/09/12 10:00:14;;;;;;;30.02;23.13;;;24.50;99.90;;;;;;5071335;28;20108;-57
2023/09/12 10:02:47;;;;;;;32.58;23.55;;;24.10;99.90;;;;;;5059667;28;20075;-57
2023/09/12 10:05:14;;;;;;;31.92;24.42;;;24.70;99.90;;;;;;5065042;28;20048;-57
2023/09/12 10:07:42;;;;;;;28.98;22.25;;;24.60;99.90;;;;;;5048785;28;20056;-57
2023/09/12 10:10:08;;;;;;;30.27;23.10;;;24.60;99.90;;;;;;5078966;28;20164;-57
2023/09/12 10:13:17;;;;;;;31.45;22.52;;;24.80;99.90;;;;;;5073336;28;20592;-56
2023/09/12 10:15:44;;;;;;;28.85;21.77;;;24.70;99.90;;;;;;5038605;28;20056;-56
2023/09/12 10:18:18;;;;;;;28.77;20.75;;;24.30;99.90;;;;;;5079143;28;20044;-57
2023/09/12 10:20:57;;;;;;;;;;;24.20;99.90;;;;;;5076628;28;20195;-57
2023/09/12 10:23:58;;;;;;;31.42;21.55;;;23.80;99.90;;;;;;5078021;28;20384;-57
2023/09/12 10:26:45;;;;;;;31.27;23.33;;;23.40;99.90;;;;;;5061956;28;20104;-56
2023/09/12 10:29:17;;;;;;;28.75;21.25;;;23.50;99.90;;;;;;5056212;28;20099;-57
2023/09/12 10:31:43;;;;;;;28.67;20.60;;;23.70;99.90;;;;;;5069184;28;20410;-57
2023/09/12 10:36:46;;;;;;;29.85;21.38;;;24.00;99.90;;;;;;5077368;28;20114;-58
2023/09/12 10:39:23;;;;;;;27.60;20.25;;;24.30;99.90;;;;;;5035519;28;20057;-59
2023/09/12 10:41:51;;;;;;;24.85;19.77;;;24.50;99.90;;;;;;5062623;28;20041;-58
2023/09/12 10:44:18;;;;;;;23.67;18.13;;;24.80;99.90;;;;;;5072415;28;20056;-58
2023/09/12 10:47:04;;;;;;;24.33;17.48;;;25.30;99.90;;;;;;5077966;28;20843;-58
2023/09/12 10:49:37;;;;;;;28.23;19.48;;;25.50;99.90;;;;;;5059800;28;20056;-57
2023/09/12 10:52:03;;;;;;;27.45;18.92;;;25.10;99.90;;;;;;5061912;28;20156;-58
2023/09/12 10:54:40;;;;;;;27.23;19.52;;;25.10;99.90;;;;;;5068782;28;20056;-59
2023/09/12 10:57:08;;;;;;;23.98;19.67;;;24.70;99.90;;;;;;5059697;28;20148;-58
2023/09/12 11:00:04;;;;;;;24.90;18.27;;;24.70;99.90;;;;;;5062417;28;20120;-58
2023/09/12 11:02:34;;;;;;;27.75;18.85;;;24.70;99.90;;;;;;5073951;28;20064;-56
2023/09/12 11:05:23;;;;;;;28.58;20.40;;;24.90;99.90;;;;;;5075111;28;20101;-59
2023/09/12 11:08:09;;;;;;;24.42;18.95;;;25.20;99.90;;;;;;5061600;28;20047;-58
2023/09/12 11:10:35;;;;;;;27.38;20.02;;;25.50;99.90;;;;;;5072452;28;20832;-58
2023/09/12 11:13:00;;;;;;;27.08;20.20;;;25.70;99.90;;;;;;5074801;28;20052;-58
2023/09/12 11:15:47;;;;;;;24.35;17.73;;;25.30;99.90;;;;;;5052840;28;20051;-59
2023/09/12 11:18:12;;;;;;;26.15;19.27;;;25.70;99.90;;;;;;5051122;28;20056;-58
2023/09/12 11:21:13;;;;;;;22.80;17.00;;;25.70;99.90;;;;;;5071745;28;20071;-57
2023/09/12 11:24:03;;;;;;;22.20;16.40;;;26.00;99.90;;;;;;5050502;28;20155;-58
2023/09/12 11:26:29;;;;;;;21.45;16.50;;;26.30;99.90;;;;;;5044955;28;20112;-58
2023/09/12 11:28:56;;;;;;;23.38;17.55;;;26.30;99.90;;;;;;5058375;28;20052;-58
2023/09/12 11:31:24;;;;;;;22.98;18.10;;;26.40;99.90;;;;;;5068435;28;20541;-58
2023/09/12 11:33:50;;;;;;;25.25;17.88;;;26.40;99.90;;;;;;5068044;28;20056;-57
2023/09/12 11:38:50;;;;;;;22.92;16.33;;;27.70;99.90;;;;;;5058627;28;20057;-58
2023/09/12 11:41:23;;;;;;;27.02;18.83;;;27.30;99.90;;;;;;5067779;28;20768;-58
2023/09/12 11:44:09;;;;;;;24.38;17.65;;;27.20;99.90;;;;;;5047461;28;20117;-58
2023/09/12 11:46:36;;;;;;;21.60;17.98;;;27.50;99.90;;;;;;5055014;28;20056;-59
2023/09/12 11:49:02;;;;;;;24.48;17.00;;;28.00;99.90;;;;;;5045326;28;20159;-58
2023/09/12 11:51:31;;;;;;;22.63;15.82;;;28.20;99.90;;;;;;5071903;28;20173;-58
2023/09/12 11:53:59;;;;;;;25.70;17.67;;;28.80;99.90;;;;;;5056111;28;20523;-59
2023/09/12 11:56:27;;;;;;;23.23;16.75;;;29.00;99.90;;;;;;5066366;28;20463;-59
2023/09/12 11:59:11;;;;;;;16.60;13.88;;;29.70;99.90;;;;;;5064000;28;20479;-58
2023/09/12 12:01:37;;;;;;;18.90;14.55;;;29.60;99.90;;;;;;5072015;28;20060;-57
2023/09/12 12:04:07;;;;;;;16.83;13.85;;;29.40;99.90;;;;;;5056255;28;20057;-58
2023/09/12 12:06:35;;;;;;;18.35;15.20;;;30.00;99.90;;;;;;5062701;28;20490;-57
2023/09/12 12:09:19;;;;;;;17.27;13.70;;;29.90;99.90;;;;;;5062537;28;20105;-58
2023/09/12 12:12:05;;;;;;;16.92;13.68;;;29.70;99.90;;;;;;5049718;28;20856;-59
2023/09/12 12:14:51;;;;;;;19.13;12.73;;;29.90;99.90;;;;;;5056546;28;20079;-58
2023/09/12 12:17:17;;;;;;;16.45;12.63;;;29.50;99.90;;;;;;5056122;28;20056;-58
2023/09/12 12:19:46;;;;;;;15.73;12.00;;;29.70;99.90;;;;;;5066722;28;23331;-60
2023/09/12 12:22:11;;;;;;;12.75;11.45;;;29.80;99.90;;;;;;5070237;28;20061;-63
2023/09/12 12:24:47;;;;;;;14.68;11.40;;;29.20;99.90;;;;;;5055380;28;20425;-59
2023/09/12 12:27:16;;;;;;;14.43;11.77;;;29.40;99.90;;;;;;5072485;28;20049;-58
2023/09/12 12:29:43;;;;;;;12.30;10.82;;;29.60;99.90;;;;;;5061172;28;20759;-60
2023/09/12 12:32:10;;;;;;;12.35;10.23;;;29.70;99.90;;;;;;5074543;28;20074;-58
2023/09/12 12:34:56;;;;;;;13.73;10.15;;;29.00;99.90;;;;;;5066760;28;20122;-58
2023/09/12 12:38:10;;;;;;;12.45;10.20;;;29.30;99.90;;;;;;5061471;28;20562;-58
2023/09/12 12:40:42;;;;;;;15.40;12.27;;;29.10;99.90;;;;;;5055352;28;20572;-58
2023/09/12 12:43:23;;;;;;;12.73;11.43;;;29.00;99.90;;;;;;5071480;28;20524;-58
2023/09/12 12:45:54;;;;;;;12.93;11.25;;;29.70;99.90;;;;;;5074251;28;20161;-62
2023/09/12 12:48:23;;;;;;;16.33;12.20;;;30.80;99.90;;;;;;5073618;28;21038;-63
2023/09/12 12:50:49;;;;;;;16.25;12.23;;;31.70;99.90;;;;;;5069987;28;20060;-62
2023/09/12 12:53:15;;;;;;;17.10;11.95;;;31.30;99.90;;;;;;5072805;28;20475;-61
2023/09/12 12:55:41;;;;;;;12.15;10.07;;;30.60;99.90;;;;;;5071615;28;20060;-58
2023/09/12 12:58:07;;;;;;;15.68;11.80;;;30.60;99.90;;;;;;5076437;28;20063;-58
2023/09/12 13:00:32;;;;;;;12.00;10.80;;;31.50;99.90;;;;;;5069225;28;20052;-58